Time;durP1;ratioP1;P1;durP2;ratioP2;P2;SDS_P1;SDS_P2;PMS_P1;PMS_P2;Temp;Humidity;BMP_temperature;BMP_pressure;BME280_temperature;BME280_humidity;BME280_pressure;Samples;Min_cycle;Max_cycle;Signal;HPM_P1;HPM_P2
2023/04/18 00:00:09;;;;;;;6.80;4.60;;;;;;;10.88;47.25;101216.93;106079;1255;73645;-86
2023/04/18 00:02:42;;;;;;;11.90;5.30;;;;;;;10.84;47.39;101216.27;106188;1254;60582;-85
2023/04/18 00:05:11;;;;;;;7.20;4.50;;;;;;;10.79;47.57;101212.80;106657;1256;60384;-86
2023/04/18 00:07:40;;;;;;;7.00;4.60;;;;;;;10.76;47.50;101208.80;106210;1257;75025;-87
2023/04/18 00:10:09;;;;;;;12.90;5.50;;;;;;;10.74;47.54;101213.96;106033;1254;64953;-88
2023/04/18 00:12:38;;;;;;;10.50;5.00;;;;;;;10.71;47.54;101211.48;106371;1256;73610;-88
2023/04/18 00:15:10;;;;;;;10.90;4.60;;;;;;;10.69;47.66;101214.40;105954;1253;60556;-88
2023/04/18 00:17:40;;;;;;;8.80;4.60;;;;;;;10.66;47.80;101211.23;106136;1254;60461;-87
2023/04/18 00:20:10;;;;;;;8.00;4.00;;;;;;;10.62;47.84;101208.48;106089;1255;74892;-85
2023/04/18 00:22:43;;;;;;;8.30;3.40;;;;;;;10.59;48.05;101209.66;106143;1259;64788;-87
2023/04/18 00:25:12;;;;;;;7.80;3.20;;;;;;;10.55;48.12;101209.34;106124;1253;73842;-89
2023/04/18 00:27:40;;;;;;;5.00;2.90;;;;;;;10.49;48.29;101205.95;106088;1256;61074;-86
2023/04/18 00:30:09;;;;;;;8.20;3.40;;;;;;;10.46;48.35;101204.38;106148;1253;61329;-88
2023/04/18 00:32:38;;;;;;;9.90;2.90;;;;;;;10.42;48.53;101206.30;106462;1255;73795;-86
2023/04/18 00:35:06;;;;;;;5.40;2.20;;;;;;;10.39;48.78;101200.34;106552;1255;64871;-86
2023/04/18 00:37:36;;;;;;;9.30;2.70;;;;;;;10.36;48.90;101196.80;106147;1256;73851;-86
2023/04/18 00:40:05;;;;;;;7.10;2.80;;;;;;;10.33;48.90;101193.83;106246;1256;61207;-88
2023/04/18 00:42:34;;;;;;;8.20;3.00;;;;;;;10.29;49.11;101191.56;106888;1254;61253;-88
2023/04/18 00:45:02;;;;;;;7.20;2.30;;;;;;;10.28;49.30;101191.06;106102;1264;74971;-87
2023/04/18 00:47:32;;;;;;;3.40;1.90;;;;;;;10.27;49.40;101187.45;106260;1254;63649;-87
2023/04/18 00:50:00;;;;;;;6.60;3.40;;;;;;;10.25;49.72;101191.04;106037;1257;72962;-87
2023/04/18 00:52:28;;;;;;;5.70;2.40;;;;;;;10.21;49.78;101185.64;106281;1253;60999;-87
2023/04/18 00:54:57;;;;;;;7.60;2.50;;;;;;;10.20;49.92;101183.08;106197;1255;60344;-88
2023/04/18 00:57:25;;;;;;;12.10;3.50;;;;;;;10.19;49.87;101178.96;106069;1255;74472;-86
2023/04/18 00:59:54;;;;;;;5.90;2.60;;;;;;;10.17;49.99;101176.92;107079;1254;64864;-85
2023/04/18 01:02:24;;;;;;;6.10;2.80;;;;;;;10.16;50.02;101172.29;106962;1254;73713;-86
2023/04/18 01:04:55;;;;;;;11.70;3.20;;;;;;;10.14;50.27;101173.05;107636;1253;61405;-83
2023/04/18 01:07:25;;;;;;;7.70;3.10;;;;;;;10.13;50.31;101169.63;109282;1254;60297;-84
2023/04/18 01:09:57;;;;;;;15.00;4.50;;;;;;;10.11;50.33;101173.23;108786;1253;74934;-83
2023/04/18 01:12:26;;;;;;;11.10;3.30;;;;;;;10.11;50.64;101174.61;106343;1256;63779;-86
2023/04/18 01:14:54;;;;;;;5.20;3.50;;;;;;;10.12;50.68;101178.03;106057;1254;73703;-86
2023/04/18 01:17:23;;;;;;;6.30;3.50;;;;;;;10.12;50.61;101175.92;106067;1256;61572;-87
2023/04/18 01:19:51;;;;;;;13.20;3.60;;;;;;;10.12;50.96;101176.65;106195;1253;61083;-87
2023/04/18 01:22:19;;;;;;;9.40;2.90;;;;;;;10.10;51.18;101178.30;106197;1254;73496;-87
2023/04/18 01:24:47;;;;;;;10.70;3.70;;;;;;;10.11;51.08;101179.17;105980;1255;63611;-87
2023/04/18 01:27:18;;;;;;;9.80;2.70;;;;;;;10.11;50.92;101183.70;106034;1256;73721;-88
2023/04/18 01:29:46;;;;;;;8.60;2.60;;;;;;;10.10;51.12;101185.85;106172;1256;60998;-88
2023/04/18 01:32:19;;;;;;;11.50;3.10;;;;;;;10.08;50.88;101181.55;106116;1258;60458;-84
2023/04/18 01:34:47;;;;;;;7.90;2.60;;;;;;;10.07;50.87;101184.59;106126;1254;74817;-88
2023/04/18 01:37:16;;;;;;;5.70;2.20;;;;;;;10.05;50.86;101183.11;106331;1256;64818;-85
2023/04/18 01:39:44;;;;;;;5.90;2.60;;;;;;;10.03;50.59;101182.17;106203;1254;73629;-87
2023/04/18 01:42:12;;;;;;;15.20;2.80;;;;;;;10.01;50.79;101176.34;106348;1254;60553;-89
2023/04/18 01:44:42;;;;;;;7.70;2.20;;;;;;;10.00;50.49;101170.42;107003;1254;61054;-87
2023/04/18 01:47:10;;;;;;;7.40;2.30;;;;;;;10.00;50.57;101167.98;108308;1253;73843;-86
2023/04/18 01:49:41;;;;;;;8.50;2.40;;;;;;;9.98;50.56;101167.22;106440;1254;63709;-87
2023/04/18 01:52:12;;;;;;;10.10;2.90;;;;;;;9.95;50.58;101166.30;106024;1257;72580;-88
2023/04/18 01:54:42;;;;;;;6.10;2.30;;;;;;;9.93;50.66;101164.46;106388;1255;60482;-87
2023/04/18 01:57:10;;;;;;;7.60;2.00;;;;;;;9.93;50.64;101160.12;106375;1254;61358;-89
2023/04/18 01:59:39;;;;;;;8.20;2.00;;;;;;;9.93;50.53;101154.88;106120;1259;73762;-87
2023/04/18 02:02:07;;;;;;;13.50;3.10;;;;;;;9.94;50.27;101152.20;106130;1257;63742;-88
2023/04/18 02:04:36;;;;;;;5.90;2.00;;;;;;;9.94;50.04;101154.48;106174;1254;73434;-86
2023/04/18 02:07:04;;;;;;;8.90;2.60;;;;;;;9.93;50.18;101147.18;105991;1257;61383;-87
2023/04/18 02:09:32;;;;;;;9.40;1.70;;;;;;;9.90;50.51;101150.29;106314;1256;60320;-85
2023/04/18 02:12:01;;;;;;;12.70;2.40;;;;;;;9.88;50.36;101150.57;106825;1254;74796;-86
2023/04/18 02:14:31;;;;;;;11.20;2.50;;;;;;;9.87;50.62;101151.15;106406;1257;64597;-86
2023/04/18 02:17:00;;;;;;;7.20;2.30;;;;;;;9.88;50.65;101150.42;106256;1254;72646;-89
2023/04/18 02:19:29;;;;;;;5.40;2.40;;;;;;;9.88;50.95;101149.34;106004;1252;61375;-90
2023/04/18 02:21:57;;;;;;;8.40;2.60;;;;;;;9.86;51.36;101150.66;106032;1254;61103;-86
2023/04/18 02:24:26;;;;;;;8.40;2.80;;;;;;;9.84;51.75;101150.91;106203;1255;74709;-86
2023/04/18 02:26:54;;;;;;;11.90;3.50;;;;;;;9.82;52.02;101150.85;106107;1257;63826;-85
2023/04/18 02:29:22;;;;;;;14.90;3.80;;;;;;;9.79;52.50;101150.30;106211;1254;73600;-87
2023/04/18 02:31:51;;;;;;;10.40;4.90;;;;;;;9.78;52.83;101150.01;106310;1253;60582;-87
2023/04/18 02:34:19;;;;;;;15.40;4.40;;;;;;;9.76;53.10;101151.67;106066;1253;60439;-86
2023/04/18 02:36:48;;;;;;;13.00;5.10;;;;;;;9.72;53.07;101144.70;106142;1253;73755;-85
2023/04/18 02:39:16;;;;;;;15.20;4.80;;;;;;;9.69;53.27;101144.69;106239;1253;64907;-85
2023/04/18 02:41:45;;;;;;;14.70;4.60;;;;;;;9.64;53.32;101145.95;106317;1252;73660;-85
2023/04/18 02:44:15;;;;;;;12.90;4.20;;;;;;;9.60;53.89;101140.59;106020;1253;60639;-84
2023/04/18 02:46:44;;;;;;;11.30;3.70;;;;;;;9.57;54.19;101144.21;107577;1253;60396;-86
2023/04/18 02:49:13;;;;;;;13.90;3.20;;;;;;;9.53;54.39;101146.30;107630;1252;74120;-84
2023/04/18 02:51:41;;;;;;;12.90;3.40;;;;;;;9.50;54.84;101145.73;106477;1258;63847;-86
2023/04/18 02:54:10;;;;;;;9.50;3.00;;;;;;;9.50;54.99;101148.02;106602;1253;72963;-86
2023/04/18 02:56:53;;;;;;;7.80;3.30;;;;;;;9.48;55.22;101152.48;106262;1254;60476;-85
2023/04/18 02:59:33;;;;;;;10.90;4.40;;;;;;;9.45;54.69;101155.40;106067;1254;61042;-87
2023/04/18 03:02:16;;;;;;;11.60;2.30;;;;;;;9.41;54.46;101158.92;106312;1254;73821;-85
2023/04/18 03:04:49;;;;;;;10.80;3.40;;;;;;;9.35;54.64;101155.88;106192;1256;65066;-86
2023/04/18 03:07:17;;;;;;;9.60;2.50;;;;;;;9.30;54.69;101155.73;106015;1253;72634;-84
2023/04/18 03:09:47;;;;;;;6.90;2.80;;;;;;;9.26;54.55;101157.86;105961;1256;61100;-87
2023/04/18 03:12:18;;;;;;;12.70;3.20;;;;;;;9.22;54.55;101159.93;106246;1257;60457;-88
2023/04/18 03:14:47;;;;;;;10.50;2.50;;;;;;;9.21;53.91;101161.73;106584;1256;74025;-84
2023/04/18 03:17:16;;;;;;;7.90;2.60;;;;;;;9.19;53.67;101158.52;106939;1254;63795;-83
2023/04/18 03:19:47;;;;;;;10.20;2.40;;;;;;;9.17;53.71;101157.57;106484;1253;72726;-85
2023/04/18 03:22:16;;;;;;;4.80;2.40;;;;;;;9.18;53.70;101162.08;106269;1254;61550;-89
2023/04/18 03:24:59;;;;;;;8.30;2.50;;;;;;;9.18;53.39;101165.05;106191;1254;60469;-90
2023/04/18 03:27:50;;;;;;;14.40;3.70;;;;;;;9.18;53.41;101170.27;106783;1252;74660;-87
2023/04/18 03:30:20;;;;;;;14.50;3.00;;;;;;;9.17;53.31;101170.11;106820;1254;63502;-85
2023/04/18 03:33:01;;;;;;;13.90;3.00;;;;;;;9.18;53.45;101177.58;106684;1254;72664;-85
2023/04/18 03:35:30;;;;;;;11.10;3.40;;;;;;;9.19;53.08;101177.90;107836;1252;61382;-87
2023/04/18 03:38:00;;;;;;;12.70;3.10;;;;;;;9.17;53.04;101174.48;109380;1252;59976;-87
2023/04/18 03:40:30;;;;;;;13.20;3.80;;;;;;;9.14;52.97;101178.63;109557;1253;74366;-90
2023/04/18 03:43:03;;;;;;;19.20;3.30;;;;;;;9.12;53.07;101177.34;109379;1252;63789;-87
2023/04/18 03:45:32;;;;;;;11.80;3.80;;;;;;;9.10;53.13;101179.33;109744;1252;72791;-87
2023/04/18 03:48:00;;;;;;;11.40;3.20;;;;;;;9.07;53.28;101178.09;109728;1252;60370;-86
2023/04/18 03:50:41;;;;;;;10.80;4.20;;;;;;;9.04;53.49;101173.86;109751;1252;60433;-86
2023/04/18 03:53:11;;;;;;;13.40;2.60;;;;;;;9.03;53.59;101170.73;109767;1255;73782;-86
2023/04/18 03:56:10;;;;;;;9.40;3.70;;;;;;;9.06;53.57;101175.88;109545;1252;63049;-88
2023/04/18 03:59:05;;;;;;;15.50;4.50;;;;;;;9.07;53.36;101176.17;109662;1252;73243;-86
2023/04/18 04:01:34;;;;;;;11.40;3.60;;;;;;;9.08;53.32;101180.45;108438;1253;60351;-87
2023/04/18 04:04:03;;;;;;;12.20;3.80;;;;;;;9.13;53.18;101182.84;106634;1254;61359;-85
2023/04/18 04:06:32;;;;;;;11.20;4.10;;;;;;;9.20;52.83;101178.17;107879;1253;73803;-87
2023/04/18 04:09:01;;;;;;;13.80;4.40;;;;;;;9.27;52.66;101180.48;107737;1252;64767;-84
2023/04/18 04:11:30;;;;;;;22.60;7.20;;;;;;;9.30;52.49;101177.01;106394;1253;73456;-88
2023/04/18 04:13:58;;;;;;;12.70;5.00;;;;;;;9.37;52.73;101180.55;106320;1252;61947;-87
2023/04/18 04:16:32;;;;;;;9.90;3.90;;;;;;;9.46;52.45;101180.48;106483;1253;60445;-88
2023/04/18 04:19:03;;;;;;;13.70;3.80;;;;;;;9.53;51.96;101183.48;106461;1253;73744;-87
2023/04/18 04:21:37;;;;;;;12.20;3.60;;;;;;;9.54;51.51;101180.81;106532;1253;64600;-84
2023/04/18 04:24:08;;;;;;;9.80;3.60;;;;;;;9.54;51.72;101172.80;106665;1252;72660;-85
2023/04/18 04:26:41;;;;;;;12.20;3.50;;;;;;;9.53;51.49;101167.78;106997;1252;61432;-86
2023/04/18 04:29:15;;;;;;;8.50;3.00;;;;;;;9.55;51.94;101170.48;107083;1253;60348;-86
2023/04/18 04:31:44;;;;;;;13.10;3.20;;;;;;;9.64;51.58;101172.83;106390;1254;75323;-89
2023/04/18 04:34:15;;;;;;;14.90;3.30;;;;;;;9.75;51.37;101173.36;106264;1253;63672;-88
2023/04/18 04:36:44;;;;;;;9.00;3.90;;;;;;;9.91;50.72;101172.95;106262;1254;72628;-90
2023/04/18 04:39:14;;;;;;;14.90;3.20;;;;;;;10.14;50.57;101175.34;107017;1252;61247;-87
2023/04/18 04:41:54;;;;;;;17.50;3.40;;;;;;;10.49;49.27;101184.30;106098;1257;60448;-89
2023/04/18 04:44:25;;;;;;;10.90;4.00;;;;;;;10.82;48.51;101183.81;106758;1251;73483;-88
2023/04/18 04:46:54;;;;;;;13.40;4.70;;;;;;;11.18;47.72;101182.96;106634;1252;63708;-89
2023/04/18 04:49:26;;;;;;;16.90;6.00;;;;;;;11.62;47.14;101185.48;106222;1257;73908;-88
2023/04/18 04:51:54;;;;;;;21.80;6.40;;;;;;;12.12;45.85;101190.78;107723;1251;60550;-90
2023/04/18 04:55:02;;;;;;;21.50;6.20;;;;;;;12.78;44.90;101193.56;103729;1290;600340;-89
2023/04/18 04:57:31;;;;;;;23.60;8.80;;;;;;;13.37;43.82;101190.30;105350;1277;61358;-88
2023/04/18 04:59:59;;;;;;;15.50;7.40;;;;;;;13.81;41.76;101196.52;106162;1254;61456;-87
2023/04/18 05:02:28;;;;;;;18.00;5.50;;;;;;;13.83;40.77;101194.83;108441;1254;72891;-89
2023/04/18 05:04:58;;;;;;;20.90;8.10;;;;;;;13.55;41.08;101196.73;109381;1254;64734;-87
2023/04/18 05:07:26;;;;;;;30.20;8.30;;;;;;;13.29;41.58;101195.26;109215;1254;72609;-89
2023/04/18 05:09:54;;;;;;;21.10;8.90;;;;;;;13.04;41.84;101191.32;109152;1252;59070;-85
2023/04/18 05:12:23;;;;;;;15.80;5.60;;;;;;;12.89;42.25;101190.45;109825;1252;60012;-87
2023/04/18 05:14:51;;;;;;;17.20;4.80;;;;;;;12.76;42.35;101186.30;109590;1252;72161;-87
2023/04/18 05:17:19;;;;;;;19.70;5.70;;;;;;;12.65;42.59;101189.08;109730;1253;63828;-87
2023/04/18 05:19:47;;;;;;;13.80;5.20;;;;;;;12.53;42.82;101188.23;109791;1254;72629;-88
2023/04/18 05:22:16;;;;;;;15.70;4.30;;;;;;;12.41;43.05;101193.14;109759;1253;60072;-87
2023/04/18 05:24:45;;;;;;;21.80;4.50;;;;;;;12.30;43.07;101192.73;109612;1252;60125;-86
2023/04/18 05:27:22;;;;;;;15.80;3.60;;;;;;;12.30;43.36;101194.14;109376;1253;72978;-86
2023/04/18 05:29:50;;;;;;;17.70;3.40;;;;;;;12.43;43.30;101186.20;107888;1254;63579;-89
2023/04/18 05:32:18;;;;;;;10.50;2.90;;;;;;;12.63;43.20;101181.30;106737;1254;72573;-92
2023/04/18 05:34:47;;;;;;;20.30;3.50;;;;;;;12.94;42.61;101174.88;106751;1256;59662;-88
2023/04/18 05:37:15;;;;;;;14.80;5.30;;;;;;;13.27;41.94;101168.49;106410;1254;60300;-87
2023/04/18 05:39:46;;;;;;;26.20;5.80;;;;;;;13.68;41.51;101162.21;106320;1253;72948;-88
2023/04/18 05:42:22;;;;;;;18.90;4.80;;;;;;;14.31;40.54;101163.85;106433;1254;64869;-87
2023/04/18 05:44:53;;;;;;;20.60;4.20;;;;;;;14.86;39.44;101156.83;106131;1254;72594;-86
2023/04/18 05:47:22;;;;;;;22.20;6.90;;;;;;;15.33;38.85;101152.61;106282;1254;60382;-88
2023/04/18 05:49:51;;;;;;;25.50;8.20;;;;;;;15.71;37.92;101149.45;106131;1254;60282;-88
2023/04/18 05:52:19;;;;;;;28.50;12.30;;;;;;;15.95;37.33;101141.19;105890;1259;74036;-91
2023/04/18 05:54:48;;;;;;;32.90;6.50;;;;;;;16.11;37.18;101141.34;106315;1255;63816;-87
2023/04/18 05:57:16;;;;;;;30.70;8.00;;;;;;;16.19;36.57;101149.02;106341;1254;72646;-89
2023/04/18 05:59:44;;;;;;;21.10;4.80;;;;;;;15.99;36.56;101148.42;106517;1254;61203;-88
2023/04/18 06:02:12;;;;;;;22.40;6.70;;;;;;;15.66;37.31;101146.42;106902;1257;59966;-89
2023/04/18 06:04:41;;;;;;;16.10;3.20;;;;;;;15.38;37.88;101145.44;106730;1254;72975;-86
2023/04/18 06:07:11;;;;;;;25.00;4.40;;;;;;;15.05;38.38;101135.26;108096;1254;63919;-87
2023/04/18 06:09:40;;;;;;;15.20;3.30;;;;;;;14.75;38.91;101134.05;107001;1259;72614;-88
2023/04/18 06:12:09;;;;;;;19.20;3.70;;;;;;;14.64;39.32;101140.89;106210;1257;61368;-90
2023/04/18 06:14:38;;;;;;;24.30;4.30;;;;;;;14.58;39.37;101134.99;106177;1254;59706;-88
2023/04/18 06:17:06;;;;;;;22.60;4.00;;;;;;;14.55;39.57;101131.88;106921;1254;73979;-88
2023/04/18 06:19:35;;;;;;;23.60;3.10;;;;;;;14.54;39.93;101127.72;106121;1258;63476;-87
2023/04/18 06:22:03;;;;;;;17.80;3.40;;;;;;;14.53;39.94;101129.35;106596;1254;71386;-89
2023/04/18 06:24:32;;;;;;;19.20;3.40;;;;;;;14.59;40.34;101131.23;106189;1254;60274;-87
2023/04/18 06:27:01;;;;;;;14.80;3.10;;;;;;;14.86;40.00;101125.67;106240;1257;59979;-88
2023/04/18 06:29:34;;;;;;;20.10;3.50;;;;;;;15.17;39.91;101132.98;106575;1259;74015;-89
2023/04/18 06:32:05;;;;;;;25.10;5.60;;;;;;;15.37;39.37;101120.85;106520;1252;63800;-86
2023/04/18 06:34:33;;;;;;;17.70;3.40;;;;;;;15.51;38.69;101133.40;105995;1257;73057;-84
2023/04/18 06:37:01;;;;;;;23.60;3.10;;;;;;;15.66;38.56;101127.75;106141;1256;61214;-87
2023/04/18 06:39:30;;;;;;;17.70;3.70;;;;;;;15.89;38.37;101123.44;106190;1254;60019;-89
2023/04/18 06:41:58;;;;;;;21.30;3.30;;;;;;;16.17;38.13;101120.29;106435;1252;71988;-88
2023/04/18 06:44:30;;;;;;;16.00;3.80;;;;;;;16.43;37.70;101119.55;106070;1252;64940;-90
2023/04/18 06:46:59;;;;;;;18.90;3.30;;;;;;;16.82;38.05;101112.84;106015;1254;72308;-90
2023/04/18 06:49:27;;;;;;;18.90;4.40;;;;;;;17.26;37.45;101115.82;106190;1254;60027;-88
2023/04/18 06:51:56;;;;;;;11.10;3.00;;;;;;;17.64;36.60;101112.11;106092;1256;59561;-87
2023/04/18 06:54:24;;;;;;;25.00;3.80;;;;;;;17.95;36.37;101113.16;106088;1257;72034;-89
2023/04/18 06:56:53;;;;;;;24.40;3.80;;;;;;;18.16;35.89;101117.55;106020;1259;63802;-88
2023/04/18 06:59:22;;;;;;;30.10;3.90;;;;;;;18.36;35.30;101103.64;106084;1256;73032;-89
2023/04/18 07:01:50;;;;;;;16.40;3.50;;;;;;;18.41;34.93;101109.42;106177;1254;59772;-89
2023/04/18 07:04:18;;;;;;;18.80;3.00;;;;;;;18.39;34.57;101108.20;106199;1256;60257;-87
2023/04/18 07:06:47;;;;;;;22.60;5.90;;;;;;;18.30;34.49;101112.11;105971;1254;72837;-87
2023/04/18 07:09:15;;;;;;;23.40;3.50;;;;;;;18.14;34.38;101110.23;105915;1252;63940;-88
2023/04/18 07:11:44;;;;;;;36.40;13.10;;;;;;;17.87;35.00;101115.36;106182;1256;72628;-90
2023/04/18 07:14:12;;;;;;;23.60;5.60;;;;;;;17.50;35.23;101112.52;105897;1259;61372;-90
2023/04/18 07:16:42;;;;;;;21.70;7.40;;;;;;;17.20;36.10;101109.83;106268;1256;59987;-89
2023/04/18 07:19:10;;;;;;;19.70;3.30;;;;;;;17.01;36.55;101105.00;106159;1254;72995;-89
2023/04/18 07:21:39;;;;;;;20.60;4.20;;;;;;;16.89;36.68;101101.45;106172;1254;63623;-87
2023/04/18 07:24:08;;;;;;;20.50;4.10;;;;;;;16.97;36.76;101110.45;107276;1254;72648;-89
2023/04/18 07:26:37;;;;;;;19.80;4.10;;;;;;;17.18;36.36;101106.83;106681;1254;60280;-90
2023/04/18 07:29:05;;;;;;;21.90;3.00;;;;;;;17.39;36.06;101112.57;106443;1252;61257;-87
2023/04/18 07:31:34;;;;;;;26.70;3.30;;;;;;;17.63;36.03;101110.58;106920;1252;72987;-88
2023/04/18 07:34:03;;;;;;;20.90;2.90;;;;;;;17.97;35.70;101114.20;107488;1259;63782;-87
2023/04/18 07:36:32;;;;;;;15.40;3.50;;;;;;;18.41;35.34;101112.09;108504;1252;72619;-84
2023/04/18 07:39:00;;;;;;;18.30;3.00;;;;;;;18.94;34.85;101107.20;108639;1253;60339;-91
2023/04/18 07:41:29;;;;;;;21.20;3.50;;;;;;;19.47;34.09;101110.45;108635;1252;59969;-85
2023/04/18 07:44:01;;;;;;;17.30;4.30;;;;;;;20.01;33.48;101107.67;106559;1259;72991;-87
2023/04/18 07:46:31;;;;;;;23.80;4.10;;;;;;;20.45;33.00;101102.24;106585;1256;63478;-88
2023/04/18 07:49:01;;;;;;;23.00;4.30;;;;;;;20.73;32.36;101099.96;107300;1252;71533;-87
2023/04/18 07:51:33;;;;;;;16.20;3.40;;;;;;;21.01;31.77;101100.50;107088;1254;60175;-89
2023/04/18 07:54:02;;;;;;;19.00;3.40;;;;;;;21.19;31.44;101099.65;107667;1253;61257;-88
2023/04/18 07:56:31;;;;;;;19.80;3.20;;;;;;;21.31;31.16;101096.96;108234;1254;74046;-89
2023/04/18 07:59:00;;;;;;;19.90;3.30;;;;;;;21.36;31.35;101099.60;107003;1253;64561;-87
2023/04/18 08:01:30;;;;;;;15.00;2.80;;;;;;;21.31;31.44;101095.59;107210;1254;73456;-89
2023/04/18 08:04:00;;;;;;;20.10;3.90;;;;;;;21.33;31.17;101092.91;106957;1258;60306;-88
2023/04/18 08:06:30;;;;;;;23.60;4.70;;;;;;;21.53;31.44;101086.90;106933;1255;60589;-85
2023/04/18 08:09:01;;;;;;;17.60;3.90;;;;;;;21.81;31.14;101089.45;106957;1254;73894;-88
2023/04/18 08:11:34;;;;;;;21.60;4.50;;;;;;;21.99;30.80;101089.20;106942;1256;63991;-89
2023/04/18 08:14:02;;;;;;;22.50;3.90;;;;;;;22.18;30.64;101087.65;106886;1252;73844;-88
2023/04/18 08:16:32;;;;;;;20.70;3.90;;;;;;;22.38;30.12;101080.71;106306;1254;60254;-86
2023/04/18 08:19:00;;;;;;;25.20;3.70;;;;;;;22.50;30.56;101081.52;106247;1257;60300;-89
2023/04/18 08:21:30;;;;;;;20.10;3.80;;;;;;;22.64;29.93;101070.64;106033;1254;74015;-92
2023/04/18 08:23:58;;;;;;;20.40;2.90;;;;;;;22.58;29.79;101069.90;105941;1253;63908;-85
2023/04/18 08:26:27;;;;;;;21.60;3.60;;;;;;;22.49;30.05;101074.90;106117;1254;73468;-90
2023/04/18 08:28:55;;;;;;;34.40;15.60;;;;;;;22.47;30.10;101068.69;106468;1253;60054;-89
2023/04/18 08:31:24;;;;;;;13.30;3.30;;;;;;;22.60;29.87;101078.43;106673;1254;61164;-88
2023/04/18 08:33:53;;;;;;;19.00;4.10;;;;;;;22.58;29.67;101072.37;105981;1252;74017;-88
2023/04/18 08:36:21;;;;;;;26.90;4.60;;;;;;;22.47;30.17;101073.98;106312;1253;64811;-86
2023/04/18 08:38:49;;;;;;;22.40;3.80;;;;;;;22.51;30.32;101071.64;106240;1254;73655;-87
2023/04/18 08:41:20;;;;;;;19.10;4.30;;;;;;;22.69;30.66;101060.33;106154;1254;60209;-89
2023/04/18 08:43:48;;;;;;;11.80;2.40;;;;;;;22.92;30.63;101061.30;106398;1256;60048;-88
2023/04/18 08:46:17;;;;;;;19.10;2.70;;;;;;;23.16;30.04;101067.00;106486;1254;72839;-85
2023/04/18 08:48:48;;;;;;;17.90;3.30;;;;;;;23.46;29.95;101065.05;106535;1259;64858;-86
2023/04/18 08:51:17;;;;;;;13.70;3.20;;;;;;;23.62;29.34;101067.45;106309;1254;72610;-86
2023/04/18 08:53:47;;;;;;;11.20;2.60;;;;;;;23.70;29.10;101070.33;106194;1254;60305;-91
2023/04/18 08:56:15;;;;;;;13.90;3.70;;;;;;;23.68;29.24;101060.75;106101;1253;61312;-89
2023/04/18 08:58:44;;;;;;;18.60;2.80;;;;;;;23.52;29.34;101073.47;106064;1258;74057;-87
2023/04/18 09:01:13;;;;;;;12.90;3.90;;;;;;;23.44;29.08;101075.94;106107;1258;64467;-86
2023/04/18 09:03:42;;;;;;;16.00;3.80;;;;;;;23.30;28.94;101063.92;105966;1256;73536;-90
2023/04/18 09:06:17;;;;;;;17.60;3.60;;;;;;;23.22;29.29;101061.88;105930;1253;60454;-89
2023/04/18 09:08:57;;;;;;;13.70;3.20;;;;;;;23.26;29.60;101067.77;106192;1254;61094;-89
2023/04/18 09:11:27;;;;;;;17.30;4.00;;;;;;;23.30;29.49;101059.95;106184;1253;74752;-88
2023/04/18 09:13:57;;;;;;;16.10;5.00;;;;;;;23.33;29.86;101054.89;106417;1254;63974;-87
2023/04/18 09:16:26;;;;;;;16.60;3.20;;;;;;;23.51;30.14;101055.55;106173;1257;73934;-92
2023/04/18 09:19:09;;;;;;;13.90;3.00;;;;;;;23.83;29.68;101060.37;106288;1258;61019;-88
2023/04/18 09:21:40;;;;;;;17.80;4.10;;;;;;;24.11;28.91;101047.70;106574;1258;60401;-89
2023/04/18 09:24:29;;;;;;;12.90;2.90;;;;;;;24.06;28.90;101048.38;107810;1252;74759;-85
2023/04/18 09:26:58;;;;;;;14.40;2.70;;;;;;;23.99;29.16;101049.95;107651;1252;64839;-87
2023/04/18 09:29:42;;;;;;;17.70;3.70;;;;;;;24.06;28.90;101053.39;106157;1254;73664;-86
2023/04/18 09:32:32;;;;;;;7.30;2.80;;;;;;;24.04;28.94;101050.25;106070;1259;60531;-88
2023/04/18 09:35:02;;;;;;;11.00;3.10;;;;;;;24.07;29.49;101049.84;105947;1252;61674;-91
2023/04/18 09:37:32;;;;;;;15.40;3.40;;;;;;;24.30;28.75;101051.98;105877;1256;73802;-88
2023/04/18 09:40:01;;;;;;;10.10;2.80;;;;;;;24.37;27.94;101046.33;106257;1254;63156;-87
2023/04/18 09:42:34;;;;;;;17.60;2.70;;;;;;;24.30;27.94;101048.22;106390;1254;73697;-89
2023/04/18 09:45:04;;;;;;;12.40;2.70;;;;;;;24.20;27.92;101049.15;106579;1257;61692;-86
2023/04/18 09:47:35;;;;;;;19.00;5.00;;;;;;;24.08;28.16;101044.98;106090;1254;60957;-91
2023/04/18 09:50:08;;;;;;;14.90;3.40;;;;;;;23.90;28.88;101048.93;106219;1257;74758;-87
2023/04/18 09:52:40;;;;;;;15.20;2.40;;;;;;;23.79;28.47;101055.09;106235;1258;64836;-89
2023/04/18 09:55:18;;;;;;;16.90;4.70;;;;;;;23.73;29.39;101055.30;106128;1254;72452;-89
2023/04/18 09:57:48;;;;;;;23.40;5.70;;;;;;;23.71;28.98;101050.25;106131;1259;60435;-88
2023/04/18 10:00:25;;;;;;;20.20;4.20;;;;;;;23.47;29.13;101052.95;106227;1254;61264;-87
2023/04/18 10:03:06;;;;;;;18.70;4.00;;;;;;;23.23;29.60;101052.08;106116;1257;74779;-85
2023/04/18 10:05:38;;;;;;;21.20;3.60;;;;;;;23.09;29.56;101048.33;106397;1253;64751;-86
2023/04/18 10:08:07;;;;;;;24.00;3.10;;;;;;;22.84;29.99;101048.63;106913;1254;73470;-88
2023/04/18 10:10:39;;;;;;;20.20;3.70;;;;;;;22.66;30.49;101045.00;106250;1253;61513;-89
2023/04/18 10:13:09;;;;;;;16.70;3.40;;;;;;;22.54;30.78;101047.69;106115;1252;60425;-85
2023/04/18 10:15:38;;;;;;;17.40;5.50;;;;;;;22.34;30.66;101052.23;106095;1256;73710;-88
2023/04/18 10:18:13;;;;;;;15.90;5.20;;;;;;;22.18;30.99;101049.27;106329;1258;64760;-87
2023/04/18 10:20:43;;;;;;;10.20;2.80;;;;;;;22.11;31.22;101050.02;106158;1252;72636;-91
2023/04/18 10:23:30;;;;;;;9.50;2.90;;;;;;;22.14;31.15;101056.69;106277;1254;60694;-88
2023/04/18 10:25:58;;;;;;;14.20;2.70;;;;;;;22.31;31.16;101061.80;106307;1252;61025;-91
2023/04/18 10:28:27;;;;;;;10.60;2.90;;;;;;;22.39;30.92;101067.18;106212;1254;72779;-87
2023/04/18 10:31:02;;;;;;;16.10;3.30;;;;;;;22.30;31.08;101067.17;106279;1254;62796;-90
2023/04/18 10:33:40;;;;;;;14.70;2.80;;;;;;;22.31;31.25;101071.05;106134;1254;72604;-88
2023/04/18 10:36:11;;;;;;;15.80;3.50;;;;;;;22.24;31.19;101070.34;106254;1254;60666;-91
2023/04/18 10:38:44;;;;;;;19.50;3.50;;;;;;;22.02;31.78;101060.04;106237;1254;60418;-88
2023/04/18 10:41:13;;;;;;;26.90;3.80;;;;;;;21.76;31.86;101044.54;106460;1254;74757;-89
2023/04/18 10:44:08;;;;;;;19.20;4.70;;;;;;;21.54;32.22;101033.23;107328;1254;63791;-90
2023/04/18 10:46:57;;;;;;;12.30;3.70;;;;;;;21.21;32.64;101029.29;106624;1253;72707;-86
2023/04/18 10:49:26;;;;;;;17.10;3.30;;;;;;;20.86;33.24;101031.01;106375;1254;61357;-88
2023/04/18 10:52:00;;;;;;;13.20;3.60;;;;;;;20.52;34.01;101024.69;106339;1252;60498;-89
2023/04/18 10:54:29;;;;;;;20.70;3.40;;;;;;;20.21;34.73;101018.89;106218;1256;74795;-89
2023/04/18 10:57:00;;;;;;;25.90;4.20;;;;;;;19.92;35.22;101012.54;106296;1254;63864;-91
2023/04/18 10:59:31;;;;;;;29.30;5.70;;;;;;;19.69;35.60;101020.15;106466;1254;73783;-88
2023/04/18 11:02:28;;;;;;;19.40;4.40;;;;;;;19.49;36.09;101023.03;108207;1253;60363;-86
2023/04/18 11:05:30;;;;;;;23.50;4.80;;;;;;;19.16;36.75;101022.25;107805;1252;59994;-86
2023/04/18 11:07:59;;;;;;;18.80;4.70;;;;;;;18.95;36.99;101021.30;107200;1254;73622;-88
2023/04/18 11:10:28;;;;;;;23.10;6.00;;;;;;;18.80;37.29;101028.64;106130;1259;64724;-87
2023/04/18 11:13:03;;;;;;;21.60;4.60;;;;;;;18.65;37.45;101031.02;106537;1253;72649;-85
2023/04/18 11:15:31;;;;;;;26.20;7.40;;;;;;;18.52;37.70;101031.48;106870;1256;61390;-88
2023/04/18 11:18:03;;;;;;;25.30;7.30;;;;;;;18.41;38.02;101029.73;106717;1254;60533;-90
2023/04/18 11:20:38;;;;;;;16.00;5.40;;;;;;;18.34;38.52;101033.91;106242;1254;73800;-86
2023/04/18 11:23:22;;;;;;;19.50;4.70;;;;;;;18.32;38.58;101034.60;106281;1256;64757;-86
2023/04/18 11:25:53;;;;;;;17.90;4.20;;;;;;;18.33;38.70;101035.44;106699;1254;71654;-88
2023/04/18 11:28:23;;;;;;;23.40;4.40;;;;;;;18.38;38.62;101033.35;106897;1254;60499;-87